Time;durP1;ratioP1;P1;durP2;ratioP2;P2;SDS_P1;SDS_P2;PMS_P1;PMS_P2;Temp;Humidity;BMP_temperature;BMP_pressure;BME280_temperature;BME280_humidity;BME280_pressure;Samples;Min_cycle;Max_cycle;Signal;HPM_P1;HPM_P2
2021/06/03 00:02:08;;;;;;;8.73;6.07;;;359.30;2022.40;;;;;;4958210;28;20118;-78
2021/06/03 00:04:34;;;;;;;7.93;5.53;;;359.20;2022.40;;;;;;4955917;28;20038;-79
2021/06/03 00:07:00;;;;;;;10.43;5.80;;;359.20;2022.40;;;;;;4975260;28;20055;-81
2021/06/03 00:09:26;;;;;;;9.38;5.32;;;359.30;2022.40;;;;;;4958539;28;20055;-78
2021/06/03 00:11:52;;;;;;;7.88;5.60;;;359.20;2022.40;;;;;;4958232;28;20015;-79
2021/06/03 00:14:18;;;;;;;12.27;6.05;;;359.20;2022.40;;;;;;4958263;28;20038;-83
2021/06/03 00:16:44;;;;;;;10.85;6.00;;;359.20;2048.00;;;;;;4975240;28;20019;-79
2021/06/03 00:19:11;;;;;;;9.05;5.65;;;359.20;2048.00;;;;;;4958135;28;20035;-82
2021/06/03 00:21:41;;;;;;;7.50;5.55;;;359.10;2048.00;;;;;;4975276;28;20485;-78
2021/06/03 00:24:07;;;;;;;10.65;4.90;;;359.10;2048.00;;;;;;4958053;28;20030;-78
2021/06/03 00:26:34;;;;;;;9.32;5.55;;;359.10;2048.00;;;;;;4974189;28;20031;-83
2021/06/03 00:29:00;;;;;;;16.73;6.68;;;359.00;2073.60;;;;;;4984291;28;20018;-82
2021/06/03 00:31:26;;;;;;;8.82;5.60;;;359.00;2073.60;;;;;;4973116;28;20440;-84
2021/06/03 00:33:52;;;;;;;12.15;6.10;;;359.10;2048.00;;;;;;4977860;28;20027;-78
2021/06/03 00:36:17;;;;;;;10.15;5.88;;;359.10;2048.00;;;;;;4975056;28;20122;-78
2021/06/03 00:38:43;;;;;;;7.10;5.63;;;359.10;2048.00;;;;;;4975004;28;20070;-78
2021/06/03 00:41:10;;;;;;;9.68;5.82;;;359.10;2022.40;;;;;;4958059;28;20027;-82
2021/06/03 00:43:36;;;;;;;12.85;7.53;;;359.10;2022.40;;;;;;4954888;28;20384;-83
2021/06/03 00:46:04;;;;;;;12.48;6.95;;;359.10;2022.40;;;;;;4973622;28;20026;-78
2021/06/03 00:48:30;;;;;;;14.52;6.93;;;359.10;2022.40;;;;;;4957806;28;20054;-78
2021/06/03 00:50:58;;;;;;;13.25;7.28;;;359.00;2048.00;;;;;;4992431;28;20108;-79
2021/06/03 00:53:24;;;;;;;10.68;6.60;;;359.00;2022.40;;;;;;4969758;28;20027;-79
2021/06/03 00:55:56;;;;;;;12.45;7.05;;;359.00;2022.40;;;;;;4957860;28;20031;-79
2021/06/03 00:58:23;;;;;;;14.98;6.57;;;359.00;2022.40;;;;;;4947678;28;20023;-79
2021/06/03 01:00:50;;;;;;;12.02;7.65;;;359.00;2048.00;;;;;;4947031;28;20018;-79
2021/06/03 01:03:18;;;;;;;16.00;8.57;;;358.80;2073.60;;;;;;4974378;28;20030;-82
2021/06/03 01:05:54;;;;;;;36.28;14.38;;;358.80;2073.60;;;;;;4956819;28;20065;-79
2021/06/03 01:08:31;;;;;;;;;;;358.80;2073.60;;;;;;4947605;28;20129;-77
2021/06/03 01:11:07;;;;;;;13.15;6.15;;;358.80;2073.60;;;;;;4969289;28;20005;-82
2021/06/03 01:13:55;;;;;;;14.85;7.40;;;358.70;2073.60;;;;;;4956932;28;20709;-83
2021/06/03 01:16:21;;;;;;;8.02;5.95;;;358.70;2099.20;;;;;;4954769;28;20489;-79
2021/06/03 01:18:47;;;;;;;11.82;6.28;;;358.40;2099.20;;;;;;4957160;28;20055;-83
2021/06/03 01:21:32;;;;;;;10.55;6.75;;;358.60;2099.20;;;;;;4957013;28;20046;-82
2021/06/03 01:24:16;;;;;;;9.93;7.00;;;358.50;2099.20;;;;;;4951513;28;20070;-78
2021/06/03 01:26:44;;;;;;;9.27;6.55;;;358.50;2099.20;;;;;;4970783;28;20038;-78
2021/06/03 01:29:13;;;;;;;10.88;6.40;;;358.50;2073.60;;;;;;4975268;28;20019;-79
2021/06/03 01:31:40;;;;;;;13.50;7.30;;;358.50;2073.60;;;;;;4963169;28;20037;-83
2021/06/03 01:34:08;;;;;;;10.38;5.90;;;358.50;2099.20;;;;;;4973815;28;20019;-83
2021/06/03 01:36:34;;;;;;;10.88;5.93;;;358.40;2099.20;;;;;;4973187;28;20042;-83
2021/06/03 01:39:04;;;;;;;15.25;7.90;;;358.40;2099.20;;;;;;4956737;28;20029;-78
2021/06/03 01:41:31;;;;;;;6.75;6.03;;;358.40;2099.20;;;;;;4973921;28;20484;-82
2021/06/03 01:43:57;;;;;;;9.48;6.15;;;333.70;2099.20;;;;;;4974209;28;20030;-78
2021/06/03 01:46:22;;;;;;;10.70;6.10;;;358.40;2099.20;;;;;;4956665;28;20455;-79
2021/06/03 01:48:49;;;;;;;11.95;7.68;;;333.50;2124.80;;;;;;4973912;28;20031;-83
2021/06/03 01:51:16;;;;;;;11.23;5.85;;;333.60;2124.80;;;;;;4956287;28;20026;-83
2021/06/03 01:53:42;;;;;;;10.02;6.72;;;333.60;2124.80;;;;;;4956434;28;20034;-79
2021/06/03 01:56:12;;;;;;;9.57;6.03;;;333.60;2124.80;;;;;;4958349;28;20156;-83
2021/06/03 01:58:39;;;;;;;9.80;6.15;;;333.50;2150.40;;;;;;4984687;28;20425;-78
2021/06/03 02:01:06;;;;;;;8.68;5.82;;;333.40;2150.40;;;;;;4973742;28;20015;-82
2021/06/03 02:03:31;;;;;;;9.32;5.88;;;333.40;2150.40;;;;;;4955949;28;20019;-78
2021/06/03 02:05:58;;;;;;;12.82;7.00;;;333.40;2150.40;;;;;;4973463;28;20046;-79
2021/06/03 02:08:23;;;;;;;9.68;6.20;;;333.40;2150.40;;;;;;4956056;28;20477;-83
2021/06/03 02:10:51;;;;;;;10.57;7.45;;;333.20;2150.40;;;;;;4956122;28;20033;-78
2021/06/03 02:13:16;;;;;;;9.77;6.95;;;333.30;2124.80;;;;;;4955984;28;20501;-82
2021/06/03 02:15:57;;;;;;;11.07;7.50;;;333.30;2124.80;;;;;;4973516;28;20082;-79
2021/06/03 02:18:31;;;;;;;15.10;7.63;;;333.30;2124.80;;;;;;4946785;28;20029;-78
2021/06/03 02:20:58;;;;;;;10.10;7.38;;;333.00;2176.00;;;;;;4972936;28;20026;-78
2021/06/03 02:23:27;;;;;;;10.18;6.90;;;333.00;2176.00;;;;;;4972588;28;20022;-83
2021/06/03 02:25:59;;;;;;;11.65;7.38;;;333.10;2150.40;;;;;;4972157;28;20499;-82
2021/06/03 02:28:26;;;;;;;15.38;7.78;;;333.10;2150.40;;;;;;4953195;28;20031;-79
2021/06/03 02:30:53;;;;;;;12.93;7.30;;;333.10;2150.40;;;;;;4973249;28;20019;-78
2021/06/03 02:33:19;;;;;;;13.13;7.88;;;333.10;2176.00;;;;;;4972991;28;20023;-78
2021/06/03 02:35:46;;;;;;;11.48;8.10;;;333.00;2176.00;;;;;;4955674;28;20440;-78
2021/06/03 02:38:12;;;;;;;12.32;7.88;;;333.10;2176.00;;;;;;4955803;28;20110;-85
2021/06/03 02:40:39;;;;;;;12.63;7.85;;;333.00;2176.00;;;;;;4971910;28;20436;-79
2021/06/03 02:43:05;;;;;;;10.48;7.22;;;333.00;2176.00;;;;;;4971372;28;20050;-81
2021/06/03 02:45:32;;;;;;;11.18;7.72;;;332.90;2176.00;;;;;;4971825;28;20056;-79
2021/06/03 02:47:59;;;;;;;9.55;7.32;;;333.00;2176.00;;;;;;4955435;28;20492;-79
2021/06/03 02:50:26;;;;;;;13.32;7.85;;;332.90;2176.00;;;;;;4955513;28;20042;-78
2021/06/03 02:52:54;;;;;;;11.73;7.80;;;332.90;2176.00;;;;;;4972872;28;20098;-79
2021/06/03 02:55:21;;;;;;;10.90;8.23;;;333.00;2176.00;;;;;;4972445;28;20101;-78
2021/06/03 02:57:47;;;;;;;10.02;7.72;;;332.90;2176.00;;;;;;4955600;28;20933;-79
2021/06/03 03:00:25;;;;;;;14.52;7.95;;;333.00;2176.00;;;;;;4972677;28;20023;-79
2021/06/03 03:02:52;;;;;;;11.55;7.80;;;333.00;2124.80;;;;;;4971054;28;20070;-82
2021/06/03 03:05:18;;;;;;;15.07;7.88;;;333.00;2150.40;;;;;;4954764;28;20043;-81
2021/06/03 03:07:44;;;;;;;12.82;7.90;;;333.10;2124.80;;;;;;4955417;28;20096;-82
2021/06/03 03:10:13;;;;;;;19.33;8.38;;;333.10;2124.80;;;;;;4971479;28;20042;-79
2021/06/03 03:12:39;;;;;;;12.30;8.10;;;333.20;2124.80;;;;;;4971318;28;20440;-79
2021/06/03 03:15:06;;;;;;;12.82;8.55;;;333.20;2099.20;;;;;;4973428;28;20441;-78
2021/06/03 03:17:32;;;;;;;14.25;8.30;;;333.30;2099.20;;;;;;4958901;28;20377;-81
2021/06/03 03:19:58;;;;;;;14.50;8.98;;;333.30;2099.20;;;;;;4976510;28;20031;-81
2021/06/03 03:22:24;;;;;;;11.15;8.40;;;333.40;2099.20;;;;;;4975109;28;20022;-79
2021/06/03 03:24:50;;;;;;;14.82;8.68;;;333.40;2099.20;;;;;;4975090;28;20029;-79
2021/06/03 03:27:16;;;;;;;13.48;8.07;;;333.40;2073.60;;;;;;4971996;28;20023;-80
2021/06/03 03:29:42;;;;;;;13.10;8.80;;;333.40;2073.60;;;;;;4964862;28;20048;-79
2021/06/03 03:32:08;;;;;;;14.05;8.00;;;333.40;2099.20;;;;;;4958736;28;20019;-79
2021/06/03 03:34:34;;;;;;;11.23;8.27;;;333.40;2099.20;;;;;;4958489;28;20039;-79
2021/06/03 03:37:00;;;;;;;11.55;7.80;;;333.20;2150.40;;;;;;4958667;28;20412;-77
2021/06/03 03:39:25;;;;;;;12.52;8.23;;;333.20;2150.40;;;;;;4974959;28;20019;-82
2021/06/03 03:41:51;;;;;;;9.88;7.43;;;333.30;2150.40;;;;;;4978844;28;20022;-79
2021/06/03 03:44:17;;;;;;;9.88;7.60;;;333.20;2150.40;;;;;;4966592;28;20516;-79
2021/06/03 03:46:43;;;;;;;13.27;8.05;;;333.20;2176.00;;;;;;4958750;28;20026;-79
2021/06/03 03:49:09;;;;;;;11.43;7.45;;;333.30;2150.40;;;;;;4975684;28;20026;-79
2021/06/03 03:51:34;;;;;;;;;;;333.40;2150.40;;;;;;4976270;28;20469;-79
2021/06/03 03:54:00;;;;;;;11.75;7.00;;;333.50;2124.80;;;;;;4975672;28;20367;-79
2021/06/03 03:56:26;;;;;;;11.38;7.45;;;333.50;2124.80;;;;;;4975005;28;20077;-82
2021/06/03 03:58:51;;;;;;;12.00;8.00;;;333.60;2124.80;;;;;;4958340;28;20062;-79
2021/06/03 04:01:18;;;;;;;12.90;7.93;;;333.70;2124.80;;;;;;4975750;28;20026;-78
2021/06/03 04:03:44;;;;;;;14.55;8.35;;;358.40;2099.20;;;;;;4958489;28;20026;-79
2021/06/03 04:06:10;;;;;;;13.32;8.35;;;358.40;2099.20;;;;;;4959232;28;20046;-79
2021/06/03 04:08:36;;;;;;;24.77;8.57;;;358.50;2099.20;;;;;;4992248;28;20018;-79
2021/06/03 04:11:02;;;;;;;17.95;9.05;;;358.50;2099.20;;;;;;4974203;28;20023;-79
2021/06/03 04:13:28;;;;;;;12.90;7.88;;;358.60;2073.60;;;;;;4958255;28;20027;-81
2021/06/03 04:15:55;;;;;;;12.68;8.85;;;358.70;2048.00;;;;;;4975482;28;20030;-78
2021/06/03 04:18:21;;;;;;;12.30;8.57;;;358.70;2048.00;;;;;;4967749;28;20030;-79
2021/06/03 04:20:48;;;;;;;8.75;7.55;;;358.70;2048.00;;;;;;4974952;28;20023;-78
2021/06/03 04:23:14;;;;;;;17.13;8.18;;;358.90;2048.00;;;;;;4958199;28;20485;-78
2021/06/03 04:25:40;;;;;;;15.23;9.15;;;358.90;2022.40;;;;;;4962333;28;20031;-79
2021/06/03 04:28:06;;;;;;;17.38;9.20;;;358.90;2022.40;;;;;;4985226;28;20023;-78
2021/06/03 04:30:33;;;;;;;12.65;9.23;;;359.00;2022.40;;;;;;4958048;28;20500;-79
2021/06/03 04:32:59;;;;;;;11.52;8.30;;;359.00;1996.80;;;;;;4974842;28;20094;-78
2021/06/03 04:35:26;;;;;;;12.85;9.63;;;358.90;2022.40;;;;;;4974869;28;20209;-78
2021/06/03 04:37:52;;;;;;;12.50;8.98;;;358.90;2022.40;;;;;;4957477;28;20818;-79
2021/06/03 04:40:20;;;;;;;16.40;10.40;;;359.00;1996.80;;;;;;4973931;28;20563;-78
2021/06/03 04:42:48;;;;;;;13.88;9.73;;;359.00;2022.40;;;;;;4954502;28;20385;-79
2021/06/03 04:45:14;;;;;;;15.35;10.07;;;359.10;1996.80;;;;;;4957812;28;20034;-80
2021/06/03 04:47:42;;;;;;;19.30;9.70;;;359.00;1996.80;;;;;;4957623;28;20027;-78
2021/06/03 04:50:08;;;;;;;17.13;9.75;;;359.10;1996.80;;;;;;4972108;28;20022;-79
2021/06/03 04:52:35;;;;;;;20.65;10.13;;;359.30;1996.80;;;;;;4988811;28;20095;-79
2021/06/03 04:55:07;;;;;;;19.52;10.60;;;359.20;2022.40;;;;;;4974727;28;20033;-81
2021/06/03 04:57:34;;;;;;;14.52;9.40;;;359.30;1996.80;;;;;;4972917;28;20055;-81
2021/06/03 04:59:59;;;;;;;12.23;8.63;;;359.30;1996.80;;;;;;4957101;28;20022;-79
2021/06/03 05:02:25;;;;;;;16.88;9.90;;;359.30;1996.80;;;;;;4974509;28;20019;-79
2021/06/03 05:04:52;;;;;;;17.65;10.30;;;384.00;1996.80;;;;;;4974228;28;20022;-82
2021/06/03 05:07:18;;;;;;;14.27;9.95;;;384.10;1996.80;;;;;;4974312;28;20061;-79
2021/06/03 05:09:44;;;;;;;12.43;9.52;;;384.40;2022.40;;;;;;4972823;28;20469;-78
2021/06/03 05:12:10;;;;;;;14.82;9.05;;;384.40;1996.80;;;;;;4974259;28;20030;-78
2021/06/03 05:14:36;;;;;;;14.48;9.25;;;384.60;1996.80;;;;;;4956860;28;20106;-77
2021/06/03 05:17:02;;;;;;;16.73;10.07;;;384.60;1945.60;;;;;;4974062;28;20472;-78
2021/06/03 05:19:29;;;;;;;14.93;10.10;;;384.60;1945.60;;;;;;4947302;28;20061;-79
2021/06/03 05:21:54;;;;;;;16.20;9.05;;;384.70;1945.60;;;;;;4964180;28;20085;-79
2021/06/03 05:24:20;;;;;;;16.42;9.75;;;384.90;1945.60;;;;;;4963896;28;20030;-79
2021/06/03 05:26:46;;;;;;;18.13;8.88;;;409.60;1996.80;;;;;;4948168;28;20165;-83
2021/06/03 05:29:15;;;;;;;15.32;9.68;;;409.70;1971.20;;;;;;4945040;29;20038;-84
2021/06/03 05:31:42;;;;;;;16.63;9.55;;;409.80;1945.60;;;;;;4948135;28;20020;-83
2021/06/03 05:34:08;;;;;;;22.17;10.60;;;410.00;1920.00;;;;;;4971426;28;20042;-77
2021/06/03 05:36:34;;;;;;;16.40;10.20;;;410.10;1920.00;;;;;;4974071;28;20162;-78
2021/06/03 05:38:59;;;;;;;13.65;10.23;;;410.20;1920.00;;;;;;4956535;28;20066;-78
2021/06/03 05:41:25;;;;;;;14.27;9.85;;;410.30;1920.00;;;;;;4974216;28;20037;-81
2021/06/03 05:43:51;;;;;;;16.98;10.05;;;410.30;1920.00;;;;;;4973688;28;20022;-78
2021/06/03 05:46:17;;;;;;;17.50;8.57;;;410.40;1894.40;;;;;;4973931;28;20034;-79
2021/06/03 05:48:42;;;;;;;11.35;7.75;;;410.50;1868.80;;;;;;4973694;28;20431;-79
2021/06/03 05:51:08;;;;;;;10.93;5.78;;;435.20;1843.20;;;;;;4973613;28;20030;-78
2021/06/03 05:53:34;;;;;;;12.90;6.43;;;435.30;1817.60;;;;;;4956218;28;20026;-82
2021/06/03 05:55:59;;;;;;;10.35;6.57;;;435.50;1740.80;;;;;;4960224;28;20508;-78
2021/06/03 05:58:25;;;;;;;14.07;6.28;;;435.60;1766.40;;;;;;4964778;28;20031;-79
2021/06/03 06:00:51;;;;;;;13.68;6.00;;;435.60;1766.40;;;;;;4963488;28;20354;-79
2021/06/03 06:03:23;;;;;;;9.95;6.28;;;435.80;1740.80;;;;;;4981060;28;20488;-78
2021/06/03 06:08:33;;;;;;;14.52;6.53;;;435.90;1689.60;;;;;;4971824;28;20026;-77
2021/06/03 06:10:59;;;;;;;11.93;5.78;;;436.00;1715.20;;;;;;4976067;28;20015;-81
2021/06/03 06:13:24;;;;;;;16.40;6.25;;;460.80;1689.60;;;;;;4966608;28;20054;-82
2021/06/03 06:15:50;;;;;;;16.08;6.20;;;460.80;1715.20;;;;;;4972825;28;20436;-78
2021/06/03 06:18:16;;;;;;;10.75;5.32;;;461.00;1664.00;;;;;;4956060;28;20026;-82
2021/06/03 06:20:42;;;;;;;8.90;4.22;;;461.10;1612.80;;;;;;4968499;28;20058;-78
2021/06/03 06:23:08;;;;;;;11.95;4.07;;;461.10;1638.40;;;;;;4972903;28;20026;-78
2021/06/03 06:25:34;;;;;;;20.23;4.50;;;461.30;1664.00;;;;;;4956043;28;20026;-78
2021/06/03 06:28:00;;;;;;;7.00;3.60;;;461.40;1587.20;;;;;;4972935;28;20030;-78
2021/06/03 06:30:27;;;;;;;15.93;3.78;;;461.50;1561.60;;;;;;4956422;28;20031;-78
2021/06/03 06:32:55;;;;;;;7.18;4.13;;;461.50;1561.60;;;;;;4970904;28;20028;-77
2021/06/03 06:35:21;;;;;;;9.10;3.70;;;461.60;1587.20;;;;;;4973358;28;20133;-78
2021/06/03 06:37:47;;;;;;;6.15;3.35;;;461.70;1587.20;;;;;;4955527;28;20110;-78
2021/06/03 06:40:13;;;;;;;10.02;3.80;;;486.40;1587.20;;;;;;4973103;28;20153;-78
2021/06/03 06:42:38;;;;;;;8.77;3.60;;;486.50;1510.40;;;;;;4972953;28;20030;-79
2021/06/03 06:45:06;;;;;;;7.20;3.20;;;486.70;1510.40;;;;;;4972864;28;20027;-78
2021/06/03 06:47:35;;;;;;;6.47;3.22;;;486.70;1433.60;;;;;;4968521;28;20046;-79
2021/06/03 06:50:02;;;;;;;6.30;2.83;;;486.80;1459.20;;;;;;4954723;28;20022;-78
2021/06/03 06:52:28;;;;;;;7.85;3.30;;;486.90;1484.80;;;;;;4973238;28;20019;-82
2021/06/03 06:54:54;;;;;;;8.27;2.95;;;487.00;1484.80;;;;;;4972765;28;20046;-80
2021/06/03 06:57:19;;;;;;;6.82;3.80;;;487.10;1536.00;;;;;;4955724;28;20110;-78
2021/06/03 06:59:45;;;;;;;9.90;2.90;;;487.30;1484.80;;;;;;4955559;28;20487;-78
2021/06/03 07:02:11;;;;;;;7.40;3.03;;;487.30;1382.40;;;;;;4972806;28;20015;-79
2021/06/03 07:04:37;;;;;;;7.47;3.10;;;487.30;1408.00;;;;;;4955303;28;20049;-79
2021/06/03 07:07:03;;;;;;;8.68;3.20;;;512.10;1408.00;;;;;;4972288;28;20125;-78
2021/06/03 07:09:29;;;;;;;4.63;2.92;;;512.20;1408.00;;;;;;4954730;28;20035;-78
2021/06/03 07:11:54;;;;;;;5.07;2.92;;;512.30;1433.60;;;;;;4984159;28;20026;-78
2021/06/03 07:14:20;;;;;;;4.60;2.72;;;512.40;1331.20;;;;;;4959304;28;20097;-78
2021/06/03 07:16:46;;;;;;;6.45;2.70;;;512.50;1331.20;;;;;;4955397;28;20026;-79
2021/06/03 07:19:11;;;;;;;4.55;2.30;;;512.60;1356.80;;;;;;4972736;28;20059;-77
2021/06/03 07:21:37;;;;;;;5.57;3.00;;;512.70;1356.80;;;;;;4955328;28;20118;-81
2021/06/03 07:24:06;;;;;;;4.97;2.60;;;512.80;1331.20;;;;;;4972818;28;20465;-79
2021/06/03 07:26:32;;;;;;;6.78;2.70;;;512.90;1331.20;;;;;;4972359;28;20015;-78
2021/06/03 07:29:03;;;;;;;10.10;3.50;;;512.90;1305.60;;;;;;4972858;28;20038;-82
2021/06/03 07:31:31;;;;;;;5.25;3.17;;;537.60;1280.00;;;;;;4955144;28;20022;-79
2021/06/03 07:33:56;;;;;;;4.72;2.58;;;537.70;1305.60;;;;;;4955487;28;20038;-78
2021/06/03 07:36:22;;;;;;;4.28;2.60;;;537.80;1382.40;;;;;;4954919;28;20035;-83
2021/06/03 07:38:48;;;;;;;9.10;2.83;;;537.90;1331.20;;;;;;4955271;28;20485;-82
2021/06/03 07:41:14;;;;;;;6.63;2.90;;;537.90;1305.60;;;;;;4958436;28;20085;-84
2021/06/03 07:43:40;;;;;;;5.82;2.83;;;538.00;1254.40;;;;;;4962530;28;20471;-79
2021/06/03 07:46:06;;;;;;;7.32;3.78;;;538.10;1280.00;;;;;;4960682;28;20078;-78
2021/06/03 07:48:32;;;;;;;8.40;2.85;;;538.20;1254.40;;;;;;4986187;28;20031;-81
2021/06/03 07:50:59;;;;;;;8.07;4.00;;;538.30;1280.00;;;;;;4971674;28;20077;-80
2021/06/03 07:53:25;;;;;;;9.45;3.58;;;538.50;1228.80;;;;;;4955056;28;20113;-83
2021/06/03 07:55:51;;;;;;;6.22;3.08;;;538.50;1177.60;;;;;;4972569;28;20022;-80
2021/06/03 07:58:17;;;;;;;6.47;3.00;;;538.50;1203.20;;;;;;4954572;28;20031;-81
2021/06/03 08:00:43;;;;;;;10.73;4.30;;;563.20;1254.40;;;;;;4972832;28;20062;-79
2021/06/03 08:03:11;;;;;;;5.03;3.75;;;563.40;1228.80;;;;;;4958327;28;20049;-83
2021/06/03 08:05:37;;;;;;;5.55;3.25;;;563.40;1152.00;;;;;;4958008;28;20065;-82
2021/06/03 08:08:03;;;;;;;4.50;2.80;;;563.40;1177.60;;;;;;4958131;28;20033;-80
2021/06/03 08:10:36;;;;;;;18.25;10.68;;;563.50;1203.20;;;;;;4957608;28;20030;-79
2021/06/03 08:13:03;;;;;;;15.98;6.45;;;563.60;1203.20;;;;;;4973578;28;20102;-79
2021/06/03 08:15:30;;;;;;;10.07;5.13;;;563.50;1177.60;;;;;;4957688;28;20552;-79
2021/06/03 08:17:56;;;;;;;15.57;3.10;;;563.70;1177.60;;;;;;4957929;28;20023;-81
2021/06/03 08:20:26;;;;;;;276.73;17.63;;;563.70;1126.40;;;;;;4975450;28;20119;-79
2021/06/03 08:22:51;;;;;;;18.92;10.23;;;563.80;1203.20;;;;;;4976956;28;20022;-91
2021/06/03 08:25:18;;;;;;;26.70;7.15;;;563.80;1152.00;;;;;;4988784;28;20113;-85
2021/06/03 08:27:45;;;;;;;13.75;6.53;;;563.90;1177.60;;;;;;4979707;28;20022;-79
2021/06/03 08:30:13;;;;;;;10.43;6.18;;;563.90;1203.20;;;;;;4958376;28;20027;-83
2021/06/03 08:32:41;;;;;;;272.92;30.05;;;563.90;1152.00;;;;;;4975242;28;20034;-79
2021/06/03 08:35:13;;;;;;;112.18;10.27;;;563.80;1177.60;;;;;;4975301;28;20042;-89
2021/06/03 08:37:39;;;;;;;87.13;10.65;;;563.90;1177.60;;;;;;4958304;28;20030;-80
2021/06/03 08:40:06;;;;;;;23.60;4.57;;;564.00;1177.60;;;;;;4974030;28;20027;-79
2021/06/03 08:42:31;;;;;;;13.10;5.60;;;564.10;1126.40;;;;;;4958286;28;20019;-81
2021/06/03 08:44:57;;;;;;;9.10;4.30;;;564.10;1126.40;;;;;;4960604;28;20496;-89
2021/06/03 08:47:23;;;;;;;4.85;2.60;;;588.90;1203.20;;;;;;4970865;28;20373;-86
2021/06/03 08:49:49;;;;;;;5.22;2.30;;;588.90;1152.00;;;;;;4973338;28;20099;-79
2021/06/03 08:52:14;;;;;;;10.13;3.53;;;589.00;1100.80;;;;;;4975020;28;20030;-79
2021/06/03 08:54:40;;;;;;;9.45;4.40;;;589.00;1126.40;;;;;;4957601;28;20042;-84
2021/06/03 08:57:09;;;;;;;7.47;3.85;;;589.10;1075.20;;;;;;4975138;28;20015;-89
2021/06/03 08:59:35;;;;;;;16.23;4.32;;;589.20;1075.20;;;;;;4957558;28;20126;-82
2021/06/03 09:02:01;;;;;;;20.00;7.15;;;589.30;1049.60;;;;;;4974700;28;20101;-78
2021/06/03 09:04:26;;;;;;;11.68;3.70;;;589.30;1075.20;;;;;;4974748;28;20019;-78
2021/06/03 09:06:52;;;;;;;11.27;3.70;;;589.30;1075.20;;;;;;4973497;28;20047;-78
2021/06/03 09:09:30;;;;;;;3.92;2.28;;;589.30;1024.00;;;;;;4957086;28;20031;-79
2021/06/03 09:12:15;;;;;;;10.93;4.40;;;589.30;1024.00;;;;;;4958429;28;20034;-79
2021/06/03 09:14:41;;;;;;;7.65;3.20;;;589.40;1024.00;;;;;;4974571;28;20399;-79
2021/06/03 09:17:12;;;;;;;5.10;2.33;;;589.40;1024.00;;;;;;4973936;28;20484;-79
2021/06/03 09:19:57;;;;;;;4.65;2.55;;;589.40;972.80;;;;;;4956872;28;20485;-90
2021/06/03 09:22:42;;;;;;;13.02;3.20;;;589.60;1049.60;;;;;;4957143;28;20034;-79
2021/06/03 09:25:29;;;;;;;3.22;2.38;;;589.60;972.80;;;;;;4957123;28;20027;-79
2021/06/03 09:27:55;;;;;;;8.13;4.28;;;589.70;998.40;;;;;;4961489;28;20071;-79
2021/06/03 09:30:21;;;;;;;10.95;5.22;;;614.40;998.40;;;;;;4957441;28;20516;-79
2021/06/03 09:32:54;;;;;;;9.38;3.55;;;614.60;1075.20;;;;;;4988581;28;20058;-79
2021/06/03 09:35:20;;;;;;;10.27;2.63;;;614.80;998.40;;;;;;4964330;28;20054;-80
2021/06/03 09:37:46;;;;;;;20.50;4.00;;;614.90;1024.00;;;;;;4963312;28;20026;-78
2021/06/03 09:40:22;;;;;;;9.45;4.60;;;615.10;998.40;;;;;;4964024;28;20035;-79
2021/06/03 09:43:04;;;;;;;;;;;615.10;998.40;;;;;;4938168;28;20049;-79
2021/06/03 09:46:01;;;;;;;9.93;2.65;;;615.20;947.20;;;;;;4956928;28;20004;-79
2021/06/03 09:48:37;;;;;;;;;;;615.20;998.40;;;;;;4953773;28;20121;-81
2021/06/03 09:51:26;;;;;;;10.75;4.32;;;615.30;947.20;;;;;;4973643;28;19952;-78
2021/06/03 09:54:05;;;;;;;9.80;4.50;;;615.30;921.60;;;;;;4975654;28;20042;-78
2021/06/03 09:56:35;;;;;;;12.73;3.17;;;640.10;921.60;;;;;;4974152;28;20022;-78
2021/06/03 09:59:04;;;;;;;10.70;4.03;;;640.00;947.20;;;;;;4955822;28;20030;-78
2021/06/03 10:01:43;;;;;;;8.07;2.65;;;640.30;972.80;;;;;;4965412;28;20049;-78
2021/06/03 10:04:10;;;;;;;4.57;2.60;;;640.40;947.20;;;;;;4955705;28;20440;-79
2021/06/03 10:07:12;;;;;;;5.82;2.83;;;640.50;947.20;;;;;;4973476;28;20074;-78
2021/06/03 10:09:53;;;;;;;4.32;3.05;;;640.50;947.20;;;;;;4972843;28;20062;-78
2021/06/03 10:12:25;;;;;;;9.57;4.38;;;640.70;921.60;;;;;;4973584;28;20385;-79
2021/06/03 10:14:59;;;;;;;9.88;4.13;;;640.70;972.80;;;;;;4959142;28;20396;-79
2021/06/03 10:17:36;;;;;;;7.60;4.57;;;640.90;921.60;;;;;;4962670;28;20022;-80
2021/06/03 10:20:10;;;;;;;7.47;3.60;;;665.60;972.80;;;;;;4960955;28;20018;-79
2021/06/03 10:22:38;;;;;;;5.60;3.03;;;640.70;870.40;;;;;;4973132;28;20025;-78
2021/06/03 10:25:07;;;;;;;12.07;7.03;;;640.90;896.00;;;;;;4972496;28;20026;-79
2021/06/03 10:27:52;;;;;;;7.35;4.43;;;640.90;921.60;;;;;;4956070;28;20034;-78
2021/06/03 10:30:27;;;;;;;17.85;7.13;;;665.70;921.60;;;;;;4956964;28;20061;-78
2021/06/03 10:32:56;;;;;;;13.73;7.03;;;665.70;921.60;;;;;;4950932;28;20035;-79
2021/06/03 10:35:29;;;;;;;13.45;4.95;;;665.70;921.60;;;;;;4973263;28;20050;-80
2021/06/03 10:37:55;;;;;;;8.68;4.57;;;665.80;921.60;;;;;;4973231;28;20093;-79
2021/06/03 10:40:30;;;;;;;7.43;3.80;;;666.00;896.00;;;;;;4955904;28;20081;-79
2021/06/03 10:42:56;;;;;;;7.35;3.40;;;666.20;896.00;;;;;;4973140;28;20607;-79
2021/06/03 10:45:23;;;;;;;13.40;4.63;;;665.80;896.00;;;;;;4955429;28;20073;-79
2021/06/03 10:47:49;;;;;;;8.82;4.13;;;640.60;947.20;;;;;;4955887;28;20018;-84
2021/06/03 10:50:35;;;;;;;61.13;16.60;;;665.70;947.20;;;;;;4955831;28;20031;-80
2021/06/03 10:53:08;;;;;;;52.80;14.02;;;665.60;921.60;;;;;;4973156;28;20497;-80
2021/06/03 10:55:49;;;;;;;11.38;3.13;;;665.80;896.00;;;;;;4955237;28;20049;-81
2021/06/03 10:58:17;;;;;;;17.92;5.57;;;666.00;844.80;;;;;;4955830;28;20034;-79
2021/06/03 11:00:45;;;;;;;69.43;12.52;;;665.60;947.20;;;;;;4955784;28;20077;-92
2021/06/03 11:03:19;;;;;;;36.05;7.40;;;665.70;921.60;;;;;;4973365;28;20552;-79
2021/06/03 11:05:59;;;;;;;16.45;5.38;;;665.90;921.60;;;;;;4958743;28;20034;-80
2021/06/03 11:08:32;;;;;;;13.60;4.13;;;666.00;921.60;;;;;;4964508;28;20812;-78
2021/06/03 11:11:12;;;;;;;15.00;5.40;;;666.20;921.60;;;;;;4977334;28;20026;-86
2021/06/03 11:13:47;;;;;;;70.63;13.32;;;665.80;921.60;;;;;;4959358;28;20050;-80
2021/06/03 11:16:16;;;;;;;36.30;8.02;;;666.20;896.00;;;;;;4964342;28;20030;-82
2021/06/03 11:18:45;;;;;;;25.33;7.03;;;666.10;870.40;;;;;;4983044;28;20090;-80
2021/06/03 11:21:36;;;;;;;6.47;3.00;;;666.20;896.00;;;;;;4954934;28;20041;-79
2021/06/03 11:24:01;;;;;;;31.20;10.68;;;666.20;896.00;;;;;;4970244;28;20035;-88
2021/06/03 11:29:13;;;;;;;34.30;8.15;;;666.30;870.40;;;;;;4972500;28;20023;-86
2021/06/03 11:31:50;;;;;;;9.88;3.88;;;666.30;896.00;;;;;;4954638;28;20092;-87
2021/06/03 11:34:23;;;;;;;8.20;3.03;;;666.30;870.40;;;;;;4955747;28;20370;-81
2021/06/03 11:36:58;;;;;;;6.50;2.88;;;666.40;844.80;;;;;;4973076;28;20026;-79
2021/06/03 11:39:36;;;;;;;10.90;3.33;;;666.40;870.40;;;;;;4958717;28;20027;-80
2021/06/03 11:42:17;;;;;;;5.00;2.90;;;666.50;844.80;;;;;;4958156;28;20073;-82
2021/06/03 11:45:12;;;;;;;9.10;2.95;;;666.10;896.00;;;;;;4975776;28;20469;-79
2021/06/03 11:47:38;;;;;;;5.78;2.53;;;666.30;870.40;;;;;;4941048;28;20054;-80
2021/06/03 11:50:29;;;;;;;5.45;2.67;;;666.50;844.80;;;;;;4977140;28;20073;-79
2021/06/03 11:55:26;;;;;;;8.75;3.95;;;666.00;819.20;;;;;;4975603;28;20093;-79
2021/06/03 11:58:17;;;;;;;10.48;3.72;;;666.00;896.00;;;;;;4958819;28;20469;-80
2021/06/03 12:00:47;;;;;;;5.72;2.80;;;666.30;896.00;;;;;;4963642;28;20038;-80
2021/06/03 12:03:24;;;;;;;5.22;2.65;;;666.50;870.40;;;;;;4957963;28;20030;-81
2021/06/03 12:05:52;;;;;;;11.15;2.63;;;691.20;870.40;;;;;;4974129;28;20038;-80
2021/06/03 12:08:52;;;;;;;121.57;10.82;;;666.20;844.80;;;;;;4974522;28;20061;-79
2021/06/03 12:11:21;;;;;;;18.05;4.45;;;665.70;844.80;;;;;;4881082;29;20046;-79
2021/06/03 12:14:00;;;;;;;39.65;5.07;;;640.70;870.40;;;;;;4897328;29;20569;-80
2021/06/03 12:16:36;;;;;;;13.50;3.97;;;640.50;896.00;;;;;;4881384;29;20084;-79
2021/06/03 12:19:04;;;;;;;12.18;4.30;;;640.90;896.00;;;;;;4897099;29;20044;-80
2021/06/03 12:21:30;;;;;;;5.10;2.42;;;640.60;870.40;;;;;;4897649;29;20051;-80
2021/06/03 12:23:55;;;;;;;4.88;2.97;;;640.70;819.20;;;;;;4881369;29;20123;-80
2021/06/03 12:26:25;;;;;;;7.03;3.00;;;665.60;921.60;;;;;;4896957;29;20028;-79
2021/06/03 12:28:51;;;;;;;13.70;4.53;;;665.90;921.60;;;;;;4881316;29;20506;-82
2021/06/03 12:31:25;;;;;;;9.85;4.47;;;666.10;896.00;;;;;;4896944;29;20028;-79